PWSweather.com
Personal Weather Stations
Station Observations
J24K28P63
Vysocina, PocatkyCZ 39464

VysocinaPocatkyCZ 39464

Lat: 49.2594238, Lon: 15.2331769

Elevation: 2011

Station Type: Vantage Pro2+

http://meteo-jirkalina.com

Latest ConditionsUpdated 7:00:12 PM GMT+01:01 Tuesday, Jun 18, 2019
Currently Today's Max Today's Min Today's Average
Temperature 73.9°F23.3°C 82.7°F28.2°C 56.3°F13.5°C 70.7°F21.5°C
Dew Point 44.5°F6.9°C 60.0°F15.6°C 38.0°F3.3°C 54.1°F12.3°C
Winds 4.2 mph ESE6.8 kmh ESE 8.0 mph -12.9 kmh - - 2.9 mph 4.7 kmh
Wind Gusts 9.0 mph14.5 kmh 14.0 mph22.5 kmh - -
Humidity 35% 96% 23% 60%
Pressure 29.88 in1011.9 mb 30.09 in1019.0 mb 29.88 in1011.9 mb -
Hour Temp Dew Point Humidity Winds Wind Gusts Pressure Precip Precip Rate Daily Precip Total
07:00 PM 73.9°F23.3°C 44.5°F6.9°C 35% 4.2 mph ESE6.8 kmh ESE 9.0 mph14.5 kmh 29.88 in1011.9 mb - 0.00 in0.0 mm 0.00 in0.0 mm
06:50 PM 77.5°F25.3°C 59.0°F15.0°C 53% 2.0 mph E3.2 kmh E 3.0 mph4.8 kmh 29.92 in1013.2 mb - 0.00 in0.0 mm 0.00 in0.0 mm
06:40 PM 77.9°F25.5°C 58.9°F14.9°C 52% 5.0 mph E8.0 kmh E 7.0 mph11.3 kmh 29.92 in1013.2 mb - 0.00 in0.0 mm 0.00 in0.0 mm
06:30 PM 75.3°F24.1°C 45.0°F7.2°C 34% 4.9 mph SE7.9 kmh SE 7.0 mph11.3 kmh 29.88 in1011.9 mb - 0.00 in0.0 mm 0.00 in0.0 mm
06:20 PM 78.6°F25.9°C 59.5°F15.3°C 52% 6.0 mph NE9.7 kmh NE 9.0 mph14.5 kmh 29.92 in1013.2 mb - 0.00 in0.0 mm 0.00 in0.0 mm
06:10 PM 79.0°F26.1°C 59.8°F15.4°C 52% 3.0 mph E4.8 kmh E 7.0 mph11.3 kmh 29.92 in1013.2 mb - 0.00 in0.0 mm 0.00 in0.0 mm
06:00 PM 77.0°F25.0°C 42.3°F5.7°C 29% 1.4 mph ESE2.3 kmh ESE 4.0 mph6.4 kmh 29.88 in1011.9 mb - 0.00 in0.0 mm 0.00 in0.0 mm
05:50 PM 79.9°F26.6°C 59.6°F15.3°C 50% 6.0 mph E9.7 kmh E 7.0 mph11.3 kmh 29.92 in1013.2 mb - 0.00 in0.0 mm 0.00 in0.0 mm
05:40 PM 80.2°F26.8°C 59.3°F15.2°C 49% 8.0 mph NE12.9 kmh NE 10.0 mph16.1 kmh 29.92 in1013.2 mb - 0.00 in0.0 mm 0.00 in0.0 mm
05:30 PM 77.9°F25.5°C 41.2°F5.1°C 27% 2.9 mph E4.7 kmh E 4.0 mph6.4 kmh 29.88 in1011.9 mb - 0.00 in0.0 mm 0.00 in0.0 mm
05:20 PM 81.4°F27.4°C 59.8°F15.4°C 48% 7.0 mph E11.3 kmh E 8.0 mph12.9 kmh 29.92 in1013.2 mb - 0.00 in0.0 mm 0.00 in0.0 mm
05:10 PM 81.9°F27.7°C 59.7°F15.4°C 47% 2.0 mph SE3.2 kmh SE 5.0 mph8.0 kmh 29.93 in1013.5 mb - 0.00 in0.0 mm 0.00 in0.0 mm
05:00 PM 78.5°F25.8°C 41.7°F5.4°C 27% 2.0 mph SE3.2 kmh SE 4.0 mph6.4 kmh 29.89 in1012.2 mb - 0.00 in0.0 mm 0.00 in0.0 mm
04:50 PM 82.0°F27.8°C 59.8°F15.4°C 47% 3.0 mph E4.8 kmh E 3.0 mph4.8 kmh 29.93 in1013.5 mb - 0.00 in0.0 mm 0.00 in0.0 mm
04:40 PM 82.1°F27.8°C 59.3°F15.2°C 46% Calm Calm 1.0 mph1.6 kmh 29.93 in1013.5 mb - 0.00 in0.0 mm 0.00 in0.0 mm
04:30 PM 78.8°F26.0°C 38.9°F3.8°C 24% 2.8 mph S4.5 kmh S 5.0 mph8.0 kmh 29.89 in1012.2 mb - 0.00 in0.0 mm 0.00 in0.0 mm
04:20 PM 82.5°F28.1°C 59.6°F15.3°C 46% 5.0 mph SE8.0 kmh SE 9.0 mph14.5 kmh 29.94 in1013.9 mb - 0.00 in0.0 mm 0.00 in0.0 mm
04:10 PM 82.1°F27.8°C 58.7°F14.8°C 45% 1.0 mph E1.6 kmh E 7.0 mph11.3 kmh 29.94 in1013.9 mb - 0.00 in0.0 mm 0.00 in0.0 mm
04:00 PM 79.0°F26.1°C 38.0°F3.3°C 23% 2.9 mph SSE4.7 kmh SSE 5.0 mph8.0 kmh 29.90 in1012.5 mb - 0.00 in0.0 mm 0.00 in0.0 mm
03:50 PM 82.1°F27.8°C 58.7°F14.8°C 45% 2.0 mph E3.2 kmh E 7.0 mph11.3 kmh 29.95 in1014.2 mb - 0.00 in0.0 mm 0.00 in0.0 mm
03:40 PM 82.1°F27.8°C 58.7°F14.8°C 45% 2.0 mph E3.2 kmh E 6.0 mph9.7 kmh 29.95 in1014.2 mb - 0.00 in0.0 mm 0.00 in0.0 mm
03:30 PM 78.7°F25.9°C 41.9°F5.5°C 27% 3.0 mph SE4.8 kmh SE 7.0 mph11.3 kmh 29.91 in1012.9 mb - 0.00 in0.0 mm 0.00 in0.0 mm
03:20 PM 82.7°F28.2°C 59.2°F15.1°C 45% 5.0 mph ENE8.0 kmh ENE 9.0 mph14.5 kmh 29.96 in1014.6 mb - 0.00 in0.0 mm 0.00 in0.0 mm
03:10 PM 81.7°F27.6°C 58.9°F14.9°C 46% 6.0 mph ESE9.7 kmh ESE 14.0 mph22.5 kmh 29.96 in1014.6 mb - 0.00 in0.0 mm 0.00 in0.0 mm
03:00 PM 78.5°F25.8°C 41.7°F5.4°C 27% 2.2 mph ESE3.5 kmh ESE 4.0 mph6.4 kmh 29.92 in1013.2 mb - 0.00 in0.0 mm 0.00 in0.0 mm
02:50 PM 81.3°F27.4°C 57.9°F14.4°C 45% 5.0 mph ENE8.0 kmh ENE 6.0 mph9.7 kmh 29.97 in1014.9 mb - 0.00 in0.0 mm 0.00 in0.0 mm
02:40 PM 81.5°F27.5°C 56.9°F13.8°C 43% 7.0 mph ENE11.3 kmh ENE 9.0 mph14.5 kmh 29.98 in1015.2 mb - 0.00 in0.0 mm 0.00 in0.0 mm
02:30 PM 78.2°F25.7°C 41.4°F5.2°C 27% 2.1 mph S3.4 kmh S 7.0 mph11.3 kmh 29.92 in1013.2 mb - 0.00 in0.0 mm 0.00 in0.0 mm
02:20 PM 81.6°F27.6°C 56.9°F13.8°C 43% 1.0 mph SE1.6 kmh SE 10.0 mph16.1 kmh 29.98 in1015.2 mb - 0.00 in0.0 mm 0.00 in0.0 mm
02:10 PM 81.5°F27.5°C 56.2°F13.4°C 42% 2.0 mph SE3.2 kmh SE 3.0 mph4.8 kmh 29.98 in1015.2 mb - 0.00 in0.0 mm 0.00 in0.0 mm
02:00 PM 81.1°F27.3°C 57.1°F13.9°C 44% 6.0 mph E9.7 kmh E 7.0 mph11.3 kmh 29.99 in1015.6 mb - 0.00 in0.0 mm 0.00 in0.0 mm
01:50 PM 82.3°F27.9°C 58.9°F14.9°C 45% 6.0 mph NE9.7 kmh NE 10.0 mph16.1 kmh 29.99 in1015.6 mb - 0.00 in0.0 mm 0.00 in0.0 mm
01:40 PM 81.8°F27.7°C 58.4°F14.7°C 45% 1.0 mph ENE1.6 kmh ENE 5.0 mph8.0 kmh 29.99 in1015.6 mb - 0.00 in0.0 mm 0.00 in0.0 mm
01:30 PM 76.7°F24.8°C 42.9°F6.1°C 30% 1.9 mph SSE3.1 kmh SSE 4.0 mph6.4 kmh 29.94 in1013.9 mb - 0.00 in0.0 mm 0.00 in0.0 mm
01:20 PM 81.1°F27.3°C 57.8°F14.3°C 45% 2.0 mph E3.2 kmh E 3.0 mph4.8 kmh 29.99 in1015.6 mb - 0.00 in0.0 mm 0.00 in0.0 mm
01:10 PM 80.8°F27.1°C 56.2°F13.4°C 43% 2.0 mph SE3.2 kmh SE 8.0 mph12.9 kmh 30.00 in1015.9 mb - 0.00 in0.0 mm 0.00 in0.0 mm
01:00 PM 76.5°F24.7°C 43.6°F6.4°C 31% 2.5 mph SE4.0 kmh SE 5.0 mph8.0 kmh 29.95 in1014.2 mb - 0.00 in0.0 mm 0.00 in0.0 mm
12:50 PM 80.7°F27.1°C 59.2°F15.1°C 48% 6.0 mph NE9.7 kmh NE 10.0 mph16.1 kmh 30.00 in1015.9 mb - 0.00 in0.0 mm 0.00 in0.0 mm
12:40 PM 80.9°F27.2°C 59.4°F15.2°C 48% 3.0 mph SE4.8 kmh SE 7.0 mph11.3 kmh 30.00 in1015.9 mb - 0.00 in0.0 mm 0.00 in0.0 mm
12:30 PM 75.8°F24.3°C 38.5°F3.6°C 26% 3.9 mph ESE6.3 kmh ESE 6.0 mph9.7 kmh 29.96 in1014.6 mb - 0.00 in0.0 mm 0.00 in0.0 mm
12:20 PM 80.9°F27.2°C 59.3°F15.2°C 48% 8.0 mph NE12.9 kmh NE 13.0 mph20.9 kmh 30.01 in1016.3 mb - 0.00 in0.0 mm 0.00 in0.0 mm
12:10 PM 80.7°F27.1°C 58.6°F14.8°C 47% 7.0 mph E11.3 kmh E 10.0 mph16.1 kmh 30.01 in1016.3 mb - 0.00 in0.0 mm 0.00 in0.0 mm
12:00 PM 75.1°F23.9°C 40.7°F4.8°C 29% 2.6 mph ENE4.2 kmh ENE 7.0 mph11.3 kmh 29.97 in1014.9 mb - 0.00 in0.0 mm 0.00 in0.0 mm
11:50 AM 80.4°F26.9°C 60.0°F15.6°C 50% 3.0 mph ESE4.8 kmh ESE 6.0 mph9.7 kmh 30.02 in1016.6 mb - 0.00 in0.0 mm 0.00 in0.0 mm
11:40 AM 79.2°F26.2°C 59.0°F15.0°C 50% 6.0 mph E9.7 kmh E 10.0 mph16.1 kmh 30.02 in1016.6 mb - 0.00 in0.0 mm 0.00 in0.0 mm
11:30 AM 74.1°F23.4°C 41.5°F5.3°C 31% 3.6 mph E5.8 kmh E 5.0 mph8.0 kmh 29.97 in1014.9 mb - 0.00 in0.0 mm 0.00 in0.0 mm
11:20 AM 79.3°F26.3°C 57.9°F14.4°C 48% 5.0 mph E8.0 kmh E 10.0 mph16.1 kmh 30.03 in1016.9 mb - 0.00 in0.0 mm 0.00 in0.0 mm
11:10 AM 78.9°F26.1°C 56.4°F13.6°C 46% 5.0 mph E8.0 kmh E 8.0 mph12.9 kmh 30.03 in1016.9 mb - 0.00 in0.0 mm 0.00 in0.0 mm
11:00 AM 73.5°F23.1°C 39.3°F4.1°C 29% 6.3 mph E10.1 kmh E 10.0 mph16.1 kmh 29.97 in1014.9 mb - 0.00 in0.0 mm 0.00 in0.0 mm
10:50 AM 79.5°F26.4°C 58.1°F14.5°C 48% 5.0 mph E8.0 kmh E 8.0 mph12.9 kmh 30.04 in1017.3 mb - 0.00 in0.0 mm 0.00 in0.0 mm
10:40 AM 78.4°F25.8°C 58.8°F14.9°C 51% 5.0 mph ESE8.0 kmh ESE 8.0 mph12.9 kmh 30.04 in1017.3 mb - 0.00 in0.0 mm 0.00 in0.0 mm
10:30 AM 70.5°F21.4°C 44.3°F6.8°C 39% 4.6 mph ESE7.4 kmh ESE 7.0 mph11.3 kmh 29.98 in1015.2 mb - 0.00 in0.0 mm 0.00 in0.0 mm
10:20 AM 76.7°F24.8°C 58.8°F14.9°C 54% 7.0 mph ESE11.3 kmh ESE 9.0 mph14.5 kmh 30.05 in1017.6 mb - 0.00 in0.0 mm 0.00 in0.0 mm
10:10 AM 76.1°F24.5°C 58.2°F14.6°C 54% 5.0 mph E8.0 kmh E 8.0 mph12.9 kmh 30.05 in1017.6 mb - 0.00 in0.0 mm 0.00 in0.0 mm
10:00 AM 69.4°F20.8°C 46.5°F8.1°C 44% 5.9 mph ENE9.5 kmh ENE 10.0 mph16.1 kmh 29.99 in1015.6 mb - 0.00 in0.0 mm 0.00 in0.0 mm
09:50 AM 75.0°F23.9°C 58.7°F14.8°C 57% 6.0 mph ESE9.7 kmh ESE 12.0 mph19.3 kmh 30.05 in1017.6 mb - 0.00 in0.0 mm 0.00 in0.0 mm
09:40 AM 74.4°F23.6°C 58.6°F14.8°C 58% 3.0 mph E4.8 kmh E 7.0 mph11.3 kmh 30.05 in1017.6 mb - 0.00 in0.0 mm 0.00 in0.0 mm
09:30 AM 68.6°F20.3°C 50.3°F10.2°C 52% 1.9 mph E3.1 kmh E 3.0 mph4.8 kmh 29.99 in1015.6 mb - 0.00 in0.0 mm 0.00 in0.0 mm
09:20 AM 74.7°F23.7°C 58.0°F14.4°C 56% 5.0 mph E8.0 kmh E 8.0 mph12.9 kmh 30.05 in1017.6 mb - 0.00 in0.0 mm 0.00 in0.0 mm
09:10 AM 74.0°F23.3°C 58.3°F14.6°C 58% 3.0 mph E4.8 kmh E 7.0 mph11.3 kmh 30.06 in1017.9 mb - 0.00 in0.0 mm 0.00 in0.0 mm
09:00 AM 68.8°F20.4°C 47.7°F8.7°C 47% 2.5 mph ENE4.0 kmh ENE 5.0 mph8.0 kmh 29.99 in1015.6 mb - 0.00 in0.0 mm 0.00 in0.0 mm
08:50 AM 72.7°F22.6°C 58.0°F14.4°C 60% 2.0 mph E3.2 kmh E 3.0 mph4.8 kmh 30.06 in1017.9 mb - 0.00 in0.0 mm 0.00 in0.0 mm
08:40 AM 72.8°F22.7°C 57.6°F14.2°C 59% 3.0 mph E4.8 kmh E 5.0 mph8.0 kmh 30.06 in1017.9 mb - 0.00 in0.0 mm 0.00 in0.0 mm
08:30 AM 66.9°F19.4°C 49.2°F9.6°C 53% 0.3 mph E0.5 kmh E 1.0 mph1.6 kmh 29.99 in1015.6 mb - 0.00 in0.0 mm 0.00 in0.0 mm
08:20 AM 73.3°F22.9°C 58.5°F14.7°C 60% 6.0 mph E9.7 kmh E 8.0 mph12.9 kmh 30.07 in1018.3 mb - 0.00 in0.0 mm 0.00 in0.0 mm
08:10 AM 73.9°F23.3°C 58.6°F14.8°C 59% 5.0 mph E8.0 kmh E 10.0 mph16.1 kmh 30.06 in1017.9 mb - 0.00 in0.0 mm 0.00 in0.0 mm
08:00 AM 66.3°F19.1°C 48.7°F9.3°C 53% 3.8 mph E6.1 kmh E 6.0 mph9.7 kmh 29.99 in1015.6 mb - 0.00 in0.0 mm 0.00 in0.0 mm
07:50 AM 72.1°F22.3°C 57.4°F14.1°C 60% 2.0 mph ENE3.2 kmh ENE 7.0 mph11.3 kmh 30.07 in1018.3 mb - 0.00 in0.0 mm 0.00 in0.0 mm
07:40 AM 72.0°F22.2°C 58.7°F14.8°C 63% 7.0 mph NE11.3 kmh NE 12.0 mph19.3 kmh 30.07 in1018.3 mb - 0.00 in0.0 mm 0.00 in0.0 mm
07:30 AM 65.6°F18.7°C 49.5°F9.7°C 56% 1.7 mph ENE2.7 kmh ENE 4.0 mph6.4 kmh 29.99 in1015.6 mb - 0.00 in0.0 mm 0.00 in0.0 mm
07:20 AM 69.8°F21.0°C 57.9°F14.4°C 66% 8.0 mph E12.9 kmh E 10.0 mph16.1 kmh 30.07 in1018.3 mb - 0.00 in0.0 mm 0.00 in0.0 mm
07:10 AM 68.7°F20.4°C 58.1°F14.5°C 69% 2.0 mph E3.2 kmh E 5.0 mph8.0 kmh 30.07 in1018.3 mb - 0.00 in0.0 mm 0.00 in0.0 mm
07:00 AM 65.2°F18.4°C 51.0°F10.6°C 60% 4.3 mph E6.9 kmh E 6.0 mph9.7 kmh 29.99 in1015.6 mb - 0.00 in0.0 mm 0.00 in0.0 mm
06:50 AM 66.0°F18.9°C 57.8°F14.3°C 75% 3.0 mph ENE4.8 kmh ENE 5.0 mph8.0 kmh 30.07 in1018.3 mb - 0.00 in0.0 mm 0.00 in0.0 mm
06:40 AM 66.6°F19.2°C 58.8°F14.9°C 76% 1.0 mph ENE1.6 kmh ENE 3.0 mph4.8 kmh 30.07 in1018.3 mb - 0.00 in0.0 mm 0.00 in0.0 mm
06:30 AM 64.3°F17.9°C 51.4°F10.8°C 63% 4.2 mph ENE6.8 kmh ENE 7.0 mph11.3 kmh 29.99 in1015.6 mb - 0.00 in0.0 mm 0.00 in0.0 mm
06:20 AM 63.9°F17.7°C 59.0°F15.0°C 84% Calm Calm 2.0 mph3.2 kmh 30.07 in1018.3 mb - 0.00 in0.0 mm 0.00 in0.0 mm
06:10 AM 62.7°F17.1°C 58.4°F14.7°C 86% Calm Calm -- 30.07 in1018.3 mb - 0.00 in0.0 mm 0.00 in0.0 mm
06:00 AM 62.9°F17.2°C 52.1°F11.2°C 68% 3.5 mph ENE5.6 kmh ENE 5.0 mph8.0 kmh 29.99 in1015.6 mb - 0.00 in0.0 mm 0.00 in0.0 mm
05:50 AM 59.9°F15.5°C 58.1°F14.5°C 94% Calm Calm -- 30.07 in1018.3 mb - 0.00 in0.0 mm 0.00 in0.0 mm
05:40 AM 58.9°F14.9°C 57.5°F14.2°C 95% Calm Calm -- 30.07 in1018.3 mb - 0.00 in0.0 mm 0.00 in0.0 mm
05:30 AM 60.7°F15.9°C 52.0°F11.1°C 73% 2.0 mph ENE3.2 kmh ENE 4.0 mph6.4 kmh 29.98 in1015.2 mb - 0.00 in0.0 mm 0.00 in0.0 mm
05:20 AM 57.9°F14.4°C 56.5°F13.6°C 95% Calm Calm -- 30.06 in1017.9 mb - 0.00 in0.0 mm 0.00 in0.0 mm
05:10 AM 57.4°F14.1°C 56.0°F13.3°C 95% Calm Calm -- 30.06 in1017.9 mb - 0.00 in0.0 mm 0.00 in0.0 mm
05:00 AM 59.9°F15.5°C 51.6°F10.9°C 74% 3.7 mph E6.0 kmh E 7.0 mph11.3 kmh 29.98 in1015.2 mb - 0.00 in0.0 mm 0.00 in0.0 mm
04:50 AM 57.3°F14.1°C 55.9°F13.3°C 95% Calm Calm -- 30.06 in1017.9 mb - 0.00 in0.0 mm 0.00 in0.0 mm
04:40 AM 56.9°F13.8°C 55.7°F13.2°C 96% Calm Calm -- 30.06 in1017.9 mb - 0.00 in0.0 mm 0.00 in0.0 mm
04:30 AM 58.6°F14.8°C 52.1°F11.2°C 79% 2.2 mph NE3.5 kmh NE 5.0 mph8.0 kmh 29.98 in1015.2 mb - 0.00 in0.0 mm 0.00 in0.0 mm
04:20 AM 56.3°F13.5°C 54.9°F12.7°C 95% Calm Calm -- 30.06 in1017.9 mb - 0.00 in0.0 mm 0.00 in0.0 mm
04:10 AM 56.4°F13.6°C 55.0°F12.8°C 95% Calm Calm -- 30.07 in1018.3 mb - 0.00 in0.0 mm 0.00 in0.0 mm
04:00 AM 58.3°F14.6°C 51.8°F11.0°C 79% 3.0 mph NE4.8 kmh NE 6.0 mph9.7 kmh 29.99 in1015.6 mb - 0.00 in0.0 mm 0.00 in0.0 mm
03:50 AM 56.4°F13.6°C 55.0°F12.8°C 95% Calm Calm -- 30.06 in1017.9 mb - 0.00 in0.0 mm 0.00 in0.0 mm
03:40 AM 56.6°F13.7°C 55.2°F12.9°C 95% Calm Calm 2.0 mph3.2 kmh 30.06 in1017.9 mb - 0.00 in0.0 mm 0.00 in0.0 mm
03:30 AM 58.7°F14.8°C 51.2°F10.7°C 76% 4.3 mph ENE6.9 kmh ENE 6.0 mph9.7 kmh 29.99 in1015.6 mb - 0.00 in0.0 mm 0.00 in0.0 mm
03:20 AM 56.9°F13.8°C 55.5°F13.1°C 95% Calm Calm -- 30.06 in1017.9 mb - 0.00 in0.0 mm 0.00 in0.0 mm
03:10 AM 57.2°F14.0°C 55.5°F13.1°C 94% Calm Calm -- 30.06 in1017.9 mb - 0.00 in0.0 mm 0.00 in0.0 mm
03:00 AM 58.9°F14.9°C 51.3°F10.7°C 76% 2.6 mph NE4.2 kmh NE 5.0 mph8.0 kmh 29.99 in1015.6 mb - 0.00 in0.0 mm 0.00 in0.0 mm
02:50 AM 56.8°F13.8°C 55.1°F12.8°C 94% Calm Calm -- 30.07 in1018.3 mb - 0.00 in0.0 mm 0.00 in0.0 mm
02:40 AM 56.9°F13.8°C 54.9°F12.7°C 93% Calm Calm -- 30.07 in1018.3 mb - 0.00 in0.0 mm 0.00 in0.0 mm
02:30 AM 59.6°F15.3°C 50.9°F10.5°C 73% 2.7 mph NE4.3 kmh NE 5.0 mph8.0 kmh 30.00 in1015.9 mb - 0.00 in0.0 mm 0.00 in0.0 mm
02:20 AM 58.2°F14.6°C 56.2°F13.4°C 93% Calm Calm -- 30.07 in1018.3 mb - 0.00 in0.0 mm 0.00 in0.0 mm
02:10 AM 58.5°F14.7°C 56.5°F13.6°C 93% Calm Calm -- 30.07 in1018.3 mb - 0.00 in0.0 mm 0.00 in0.0 mm
02:00 AM 59.8°F15.4°C 51.1°F10.6°C 73% 1.9 mph NE3.1 kmh NE 3.0 mph4.8 kmh 30.00 in1015.9 mb - 0.00 in0.0 mm 0.00 in0.0 mm
01:50 AM 58.7°F14.8°C 56.1°F13.4°C 91% Calm Calm -- 30.07 in1018.3 mb - 0.00 in0.0 mm 0.00 in0.0 mm
01:40 AM 59.0°F15.0°C 56.4°F13.6°C 91% Calm Calm -- 30.07 in1018.3 mb - 0.00 in0.0 mm 0.00 in0.0 mm
01:30 AM 61.0°F16.1°C 50.3°F10.2°C 68% 2.8 mph NE4.5 kmh NE 5.0 mph8.0 kmh 30.01 in1016.3 mb - 0.00 in0.0 mm 0.00 in0.0 mm
01:20 AM 59.6°F15.3°C 56.7°F13.7°C 90% Calm Calm -- 30.08 in1018.6 mb - 0.00 in0.0 mm 0.00 in0.0 mm
01:10 AM 59.9°F15.5°C 57.0°F13.9°C 90% Calm Calm -- 30.08 in1018.6 mb - 0.00 in0.0 mm 0.00 in0.0 mm
01:00 AM 61.4°F16.3°C 49.5°F9.7°C 65% 2.5 mph NE4.0 kmh NE 6.0 mph9.7 kmh 30.02 in1016.6 mb - 0.00 in0.0 mm 0.00 in0.0 mm
12:50 AM 59.9°F15.5°C 57.0°F13.9°C 90% Calm Calm -- 30.08 in1018.6 mb - 0.00 in0.0 mm 0.00 in0.0 mm
12:40 AM 59.8°F15.4°C 56.2°F13.4°C 88% Calm Calm -- 30.08 in1018.6 mb - 0.00 in0.0 mm 0.00 in0.0 mm
12:30 AM 61.0°F16.1°C 50.4°F10.2°C 68% 2.3 mph NE3.7 kmh NE 5.0 mph8.0 kmh 30.02 in1016.6 mb - 0.00 in0.0 mm 0.00 in0.0 mm
12:20 AM 61.7°F16.5°C 57.1°F13.9°C 85% Calm Calm -- 30.09 in1019.0 mb - 0.00 in0.0 mm 0.00 in0.0 mm
12:10 AM 63.1°F17.3°C 57.8°F14.3°C 83% Calm Calm -- 30.09 in1019.0 mb - 0.00 in0.0 mm 0.00 in0.0 mm
12:00 AM 60.9°F16.1°C 51.4°F10.8°C 71% 0.3 mph E0.5 kmh E 2.0 mph3.2 kmh 30.03 in1016.9 mb - 0.00 in0.0 mm 0.00 in0.0 mm